YXAH weather

Armidale - Lambert Park Helipad
Armidale, New South Wales, Australia

Public forecast

Using degrees Celsius for public forecast. Weather courtesy of forecast.io.

Closest aviation weather report (METAR) to Armidale - Lambert Park Helipad

Closest report is Tamworth Airport, 54.0 nm (100.1 km) SW. Retrieved 2019/10/15 10:30 UTC (0 seconds ago):

YSTW 151030Z AUTO 22001KT 9999 // NCD 22/08 Q1011 RF000/0000

Closest aviation forecast (TAF) to Armidale - Lambert Park Helipad

Closest forecast is Tamworth Airport, 54.0 nm (100.1 km) SW. Retrieved 2019/10/15 06:36 UTC (3 hours ago):

TAF YSTW 150447Z 1506/1524 20008KT CAVOK BECMG 1508/1510 15005KT CAVOK FM152200 33010KT CAVOK